createdAt,value
2018-12-15T00:01:27.931Z,100939.72
2018-12-15T00:04:02.135Z,100937.12
2018-12-15T00:06:35.607Z,100930.80
2018-12-15T00:09:10.677Z,100933.03
2018-12-15T00:11:46.689Z,100934.39
2018-12-15T00:14:19.412Z,100935.09
2018-12-15T00:16:52.198Z,100941.89
2018-12-15T00:19:25.162Z,100944.20
2018-12-15T00:22:00.839Z,100951.39
2018-12-15T00:24:33.617Z,100955.09
2018-12-15T00:27:06.989Z,100952.55
2018-12-15T00:29:39.974Z,100949.16
2018-12-15T00:32:12.468Z,100946.30
2018-12-15T00:34:45.636Z,100948.75
2018-12-15T00:37:18.327Z,100951.84
2018-12-15T00:39:51.067Z,100952.03
2018-12-15T00:42:31.769Z,100948.55
2018-12-15T00:45:08.267Z,100949.91
2018-12-15T00:47:40.798Z,100953.12
2018-12-15T00:50:16.301Z,100951.35
2018-12-15T00:52:48.964Z,100957.93
2018-12-15T00:55:21.943Z,100961.11
2018-12-15T00:57:55.675Z,100963.72
2018-12-15T01:00:28.096Z,100967.95
2018-12-15T01:03:00.728Z,100968.45
2018-12-15T01:05:36.789Z,100963.59
2018-12-15T01:08:10.749Z,100969.78
2018-12-15T01:10:46.263Z,100967.52
2018-12-15T01:13:20.425Z,100968.31
2018-12-15T01:15:54.662Z,100969.99
2018-12-15T01:18:27.167Z,100976.31
2018-12-15T01:21:01.222Z,100975.80
2018-12-15T01:23:33.808Z,100978.69
2018-12-15T01:26:08.120Z,100980.44
2018-12-15T01:28:43.225Z,100991.44
2018-12-15T01:31:15.775Z,100999.20
2018-12-15T01:33:48.376Z,100997.70
2018-12-15T01:36:21.363Z,101005.36
2018-12-15T01:38:53.973Z,101012.48
2018-12-15T01:41:27.581Z,101012.11
2018-12-15T01:44:00.886Z,101012.26
2018-12-15T01:46:33.526Z,101018.22
2018-12-15T01:49:06.154Z,101017.76
2018-12-15T01:51:39.266Z,101015.54
2018-12-15T01:54:11.875Z,101020.30
2018-12-15T01:56:44.509Z,101019.95
2018-12-15T01:59:19.115Z,101020.44
2018-12-15T02:01:51.852Z,101025.19
2018-12-15T02:04:24.391Z,101019.12
2018-12-15T02:06:57.408Z,101017.53
2018-12-15T02:09:31.363Z,101019.89
2018-12-15T02:12:04.016Z,101014.19
2018-12-15T02:14:36.974Z,101013.63
2018-12-15T02:17:09.452Z,101018.73
2018-12-15T02:19:42.048Z,101016.13
2018-12-15T02:22:16.011Z,101018.55
2018-12-15T02:24:48.876Z,101018.22
2018-12-15T02:27:21.593Z,101020.08
2018-12-15T02:29:54.843Z,101019.89
2018-12-15T02:32:28.238Z,101019.09
2018-12-15T02:35:01.586Z,101017.78
2018-12-15T02:37:36.553Z,101016.52
2018-12-15T02:40:09.185Z,101011.20
2018-12-15T02:42:41.767Z,101014.91
2018-12-15T02:45:17.283Z,101017.96
2018-12-15T02:47:49.988Z,101015.73
2018-12-15T02:50:24.689Z,101010.14
2018-12-15T02:52:57.630Z,101010.52
2018-12-15T02:55:31.191Z,101009.78
2018-12-15T02:58:04.241Z,101007.66
2018-12-15T03:00:37.020Z,101002.98
2018-12-15T03:03:09.791Z,101003.55
2018-12-15T03:05:42.877Z,101001.72
2018-12-15T03:08:15.525Z,100995.48
2018-12-15T03:10:48.112Z,100993.27
2018-12-15T03:13:21.394Z,100990.18
2018-12-15T03:15:54.080Z,100992.44
2018-12-15T03:18:26.675Z,100985.95
2018-12-15T03:21:03.150Z,100979.40
2018-12-15T03:23:35.880Z,100979.80
2018-12-15T03:26:08.456Z,100977.38
2018-12-15T03:28:41.529Z,100976.78
2018-12-15T03:31:13.995Z,100972.39
2018-12-15T03:33:46.670Z,100970.36
2018-12-15T03:36:19.790Z,100973.11
2018-12-15T03:38:52.534Z,100967.09
2018-12-15T03:41:25.248Z,100965.30
2018-12-15T03:43:58.425Z,100964.05
2018-12-15T03:46:30.929Z,100964.59
2018-12-15T03:49:03.593Z,100958.83
2018-12-15T03:51:37.463Z,100965.13
2018-12-15T03:54:10.295Z,100967.86
2018-12-15T03:56:43.754Z,100961.83
2018-12-15T03:59:23.976Z,100958.66
2018-12-15T04:01:56.630Z,100963.23
2018-12-15T04:04:30.577Z,100961.38
2018-12-15T04:07:03.495Z,100964.50
2018-12-15T04:09:36.256Z,100959.21
2018-12-15T04:12:08.834Z,100962.77
2018-12-15T04:14:43.856Z,100960.52
2018-12-15T04:17:17.289Z,100961.12
2018-12-15T04:19:50.255Z,100961.88
2018-12-15T04:22:23.482Z,100955.02
2018-12-15T04:24:56.148Z,100952.53
2018-12-15T04:27:28.815Z,100948.98
2018-12-15T04:30:09.124Z,100951.89
2018-12-15T04:32:45.382Z,100950.63
2018-12-15T04:35:18.444Z,100958.97
2018-12-15T04:37:51.354Z,100951.25
2018-12-15T04:40:24.428Z,100954.84
2018-12-15T04:42:58.032Z,100952.33
2018-12-15T04:45:32.048Z,100953.21
2018-12-15T04:48:10.827Z,100958.85
2018-12-15T04:50:44.276Z,100957.80
2018-12-15T04:53:17.082Z,100951.50
2018-12-15T04:55:50.009Z,100954.45
2018-12-15T04:58:25.345Z,100953.85
2018-12-15T05:01:00.753Z,100949.67
2018-12-15T05:03:33.926Z,100946.30
2018-12-15T05:06:06.659Z,100951.61
2018-12-15T05:08:40.249Z,100958.08
2018-12-15T05:11:12.942Z,100949.98
2018-12-15T05:13:46.155Z,100957.22
2018-12-15T05:16:20.051Z,100950.80
2018-12-15T05:18:52.693Z,100951.83
2018-12-15T05:21:25.385Z,100960.00
2018-12-15T05:23:58.299Z,100954.75
2018-12-15T05:26:31.443Z,100956.80
2018-12-15T05:29:05.456Z,100956.19
2018-12-15T05:31:38.534Z,100959.58
2018-12-15T05:34:11.145Z,100958.92
2018-12-15T05:36:44.081Z,100961.01
2018-12-15T05:39:17.220Z,100965.12
2018-12-15T05:41:50.036Z,100961.83
2018-12-15T05:44:22.631Z,100959.92
2018-12-15T05:46:59.777Z,100955.97
2018-12-15T05:49:36.092Z,100950.69
2018-12-15T05:52:09.012Z,100953.72
2018-12-15T05:54:41.977Z,100953.39
2018-12-15T05:57:14.812Z,100951.64
2018-12-15T05:59:47.364Z,100952.73
2018-12-15T06:02:21.041Z,100953.17
2018-12-15T06:04:54.741Z,100944.89
2018-12-15T06:07:27.540Z,100955.14
2018-12-15T06:10:02.802Z,100957.41
2018-12-15T06:12:37.989Z,100951.19
2018-12-15T06:15:13.640Z,100959.92
2018-12-15T06:17:46.857Z,100959.67
2018-12-15T06:20:20.093Z,100959.03
2018-12-15T06:22:52.832Z,100957.11
2018-12-15T06:25:26.652Z,100955.89
2018-12-15T06:27:59.408Z,100955.08
2018-12-15T06:30:32.024Z,100952.09
2018-12-15T06:33:04.952Z,100959.37
2018-12-15T06:35:37.572Z,100960.86
2018-12-15T06:38:10.108Z,100966.44
2018-12-15T06:40:43.189Z,100969.16
2018-12-15T06:43:16.233Z,100964.48
2018-12-15T06:45:49.163Z,100963.71
2018-12-15T06:48:22.105Z,100964.14
2018-12-15T06:50:56.244Z,100971.05
2018-12-15T06:53:28.837Z,100969.67
2018-12-15T06:56:03.847Z,100975.44
2018-12-15T06:58:37.736Z,100967.52
2018-12-15T07:01:10.389Z,100966.38
2018-12-15T07:03:43.417Z,100967.43
2018-12-15T07:06:16.201Z,100968.74
2018-12-15T07:08:49.255Z,100965.86
2018-12-15T07:11:22.281Z,100958.54
2018-12-15T07:13:55.093Z,100960.22
2018-12-15T07:16:27.889Z,100957.42
2018-12-15T07:19:00.737Z,100957.05
2018-12-15T07:21:35.087Z,100958.50
2018-12-15T07:24:07.798Z,100962.34
2018-12-15T07:26:44.020Z,100959.82
2018-12-15T07:29:17.055Z,100958.89
2018-12-15T07:31:51.413Z,100965.03
2018-12-15T07:34:27.467Z,100963.51
2018-12-15T07:37:00.099Z,100951.89
2018-12-15T07:39:33.092Z,100953.23
2018-12-15T07:42:06.699Z,100956.36
2018-12-15T07:44:39.644Z,100961.24
2018-12-15T07:47:14.329Z,100959.17
2018-12-15T07:49:47.038Z,100960.57
2018-12-15T07:52:20.168Z,100965.22
2018-12-15T07:54:53.352Z,100960.75
2018-12-15T07:57:26.751Z,100959.13
2018-12-15T07:59:59.994Z,100960.27
2018-12-15T08:02:34.248Z,100962.23
2018-12-15T08:05:07.578Z,100961.50
2018-12-15T08:07:40.772Z,100964.45
2018-12-15T08:10:22.314Z,100960.06
2018-12-15T08:12:56.899Z,100971.41
2018-12-15T08:15:31.669Z,100973.81
2018-12-15T08:18:04.421Z,100967.27
2018-12-15T08:20:37.240Z,100976.61
2018-12-15T08:23:11.228Z,100971.55
2018-12-15T08:25:45.455Z,100971.89
2018-12-15T08:28:18.232Z,100971.47
2018-12-15T08:30:51.600Z,100971.09
2018-12-15T08:33:24.787Z,100960.05
2018-12-15T08:36:00.947Z,100969.90
2018-12-15T08:38:34.044Z,100977.05
2018-12-15T08:41:07.020Z,100967.33
2018-12-15T08:43:41.103Z,100977.29
2018-12-15T08:46:15.679Z,100970.64
2018-12-15T08:48:48.204Z,100968.58
2018-12-15T08:51:22.028Z,100975.61
2018-12-15T08:53:56.275Z,100973.33
2018-12-15T08:56:30.033Z,100980.17
2018-12-15T08:59:04.160Z,100983.92
2018-12-15T09:01:37.639Z,100989.48
2018-12-15T09:04:11.172Z,100987.32
2018-12-15T09:06:43.873Z,100989.54
2018-12-15T09:09:18.360Z,100984.27
2018-12-15T09:11:51.070Z,100980.30
2018-12-15T09:14:23.829Z,100982.53
2018-12-15T09:16:57.827Z,100987.59
2018-12-15T09:19:30.476Z,100988.27
2018-12-15T09:22:03.218Z,100986.36
2018-12-15T09:24:36.159Z,100983.70
2018-12-15T09:27:10.142Z,100990.51
2018-12-15T09:29:43.589Z,100984.59
2018-12-15T09:32:18.012Z,100993.94
2018-12-15T09:34:50.653Z,100993.73
2018-12-15T09:37:25.152Z,100999.35
2018-12-15T09:39:58.959Z,100996.75
2018-12-15T09:42:34.223Z,100996.28
2018-12-15T09:45:08.955Z,100996.56
2018-12-15T09:47:42.283Z,100991.73
2018-12-15T09:50:14.891Z,100989.48
2018-12-15T09:52:48.928Z,100984.80
2018-12-15T09:55:21.721Z,100988.33
2018-12-15T09:57:57.776Z,100985.83
2018-12-15T10:00:31.309Z,100982.58
2018-12-15T10:03:08.480Z,100973.77
2018-12-15T10:05:41.204Z,100973.67
2018-12-15T10:08:16.731Z,100970.83
2018-12-15T10:10:50.944Z,100967.30
2018-12-15T10:13:23.647Z,100964.62
2018-12-15T10:15:57.301Z,100964.11
2018-12-15T10:18:30.586Z,100960.46
2018-12-15T10:21:04.688Z,100959.37
2018-12-15T10:23:39.111Z,100954.88
2018-12-15T10:26:12.789Z,100949.72
2018-12-15T10:28:47.632Z,100948.11
2018-12-15T10:31:26.863Z,100932.95
2018-12-15T10:34:01.499Z,100922.44
2018-12-15T10:36:37.458Z,100934.47
2018-12-15T10:39:11.881Z,100922.27
2018-12-15T10:41:45.150Z,100929.09
2018-12-15T10:44:21.363Z,100919.31
2018-12-15T10:46:54.016Z,100924.13
2018-12-15T10:49:30.673Z,100908.71
2018-12-15T10:52:09.464Z,100911.09
2018-12-15T10:54:42.836Z,100914.25
2018-12-15T10:57:16.608Z,100912.83
2018-12-15T10:59:53.957Z,100915.77
2018-12-15T11:02:27.099Z,100909.55
2018-12-15T11:05:01.225Z,100907.28
2018-12-15T11:07:35.485Z,100907.66
2018-12-15T11:10:11.498Z,100909.10
2018-12-15T11:12:50.296Z,100903.23
2018-12-15T11:15:23.364Z,100907.53
2018-12-15T11:17:58.293Z,100901.14
2018-12-15T11:20:31.196Z,100896.07
2018-12-15T11:23:03.869Z,100889.41
2018-12-15T11:25:39.445Z,100881.88
2018-12-15T11:28:30.222Z,100877.63
2018-12-15T11:31:04.960Z,100872.30
2018-12-15T11:33:39.250Z,100873.05
2018-12-15T11:36:12.057Z,100857.02
2018-12-15T11:38:44.800Z,100865.53
2018-12-15T11:41:18.657Z,100854.52
2018-12-15T11:43:52.313Z,100861.88
2018-12-15T11:46:25.035Z,100848.45
2018-12-15T11:49:01.586Z,100833.41
2018-12-15T11:51:36.615Z,100828.02
2018-12-15T11:54:10.082Z,100822.53
2018-12-15T11:56:46.453Z,100815.34
2018-12-15T11:59:20.515Z,100805.43
2018-12-15T12:01:55.634Z,100815.19
2018-12-15T12:04:29.099Z,100807.11
2018-12-15T12:07:04.273Z,100795.64
2018-12-15T12:09:37.450Z,100793.16
2018-12-15T12:12:10.520Z,100797.23
2018-12-15T12:14:45.076Z,100787.53
2018-12-15T12:17:19.238Z,100778.73
2018-12-15T12:19:51.989Z,100765.17
2018-12-15T12:22:24.638Z,100763.65
2018-12-15T12:25:03.398Z,100765.67
2018-12-15T12:27:36.764Z,100770.32
2018-12-15T12:30:14.969Z,100769.64
2018-12-15T12:32:50.579Z,100768.59
2018-12-15T12:35:25.705Z,100767.51
2018-12-15T12:38:01.192Z,100766.55
2018-12-15T12:40:33.945Z,100765.70
2018-12-15T12:43:06.809Z,100762.42
2018-12-15T12:45:39.735Z,100762.22
2018-12-15T12:48:13.248Z,100758.56
2018-12-15T12:50:45.876Z,100762.49
2018-12-15T12:53:19.911Z,100753.99
2018-12-15T12:55:52.771Z,100764.71
2018-12-15T12:58:25.658Z,100759.42
2018-12-15T13:00:58.852Z,100759.83
2018-12-15T13:03:33.191Z,100763.03
2018-12-15T13:06:06.598Z,100758.22
2018-12-15T13:08:40.579Z,100752.80
2018-12-15T13:11:14.383Z,100750.22
2018-12-15T13:13:50.828Z,100755.73
2018-12-15T13:16:24.481Z,100758.57
2018-12-15T13:18:57.185Z,100754.50
2018-12-15T13:21:30.537Z,100751.20
2018-12-15T13:24:03.699Z,100755.95
2018-12-15T13:26:40.850Z,100754.47
2018-12-15T13:29:19.843Z,100748.79
2018-12-15T13:31:52.464Z,100742.97
2018-12-15T13:34:25.146Z,100741.33
2018-12-15T13:37:01.156Z,100743.22
2018-12-15T13:39:39.382Z,100751.30
2018-12-15T13:42:13.036Z,100753.04
2018-12-15T13:44:53.595Z,100738.17
2018-12-15T13:47:26.873Z,100731.11
2018-12-15T13:50:00.471Z,100735.25
2018-12-15T13:52:33.674Z,100730.50
2018-12-15T13:55:07.449Z,100723.05
2018-12-15T13:57:43.860Z,100724.04
2018-12-15T14:00:20.030Z,100712.66
2018-12-15T14:02:52.951Z,100717.05
2018-12-15T14:05:26.680Z,100715.34
2018-12-15T14:08:01.798Z,100712.84
2018-12-15T14:10:37.606Z,100708.47
2018-12-15T14:13:12.989Z,100703.34
2018-12-15T14:15:47.369Z,100697.59
2018-12-15T14:18:22.153Z,100694.69
2018-12-15T14:20:54.945Z,100687.17
2018-12-15T14:23:27.610Z,100681.06
2018-12-15T14:26:04.176Z,100689.56
2018-12-15T14:28:39.239Z,100686.96
2018-12-15T14:31:12.159Z,100682.87
2018-12-15T14:33:48.359Z,100676.92
2018-12-15T14:36:25.641Z,100667.19
2018-12-15T14:38:59.096Z,100655.72
2018-12-15T14:41:34.940Z,100652.66
2018-12-15T14:44:07.727Z,100650.96
2018-12-15T14:46:43.361Z,100641.00
2018-12-15T14:49:16.549Z,100619.47
2018-12-15T14:51:50.593Z,100623.98
2018-12-15T14:54:23.326Z,100630.31
2018-12-15T14:57:00.505Z,100629.55
2018-12-15T14:59:34.409Z,100629.36
2018-12-15T15:02:07.926Z,100616.25
2018-12-15T15:04:41.798Z,100617.47
2018-12-15T15:07:16.935Z,100607.81
2018-12-15T15:09:54.345Z,100598.70
2018-12-15T15:12:28.778Z,100593.28
2018-12-15T15:15:03.938Z,100579.52
2018-12-15T15:17:39.492Z,100578.96
2018-12-15T15:20:13.639Z,100575.11
2018-12-15T15:22:46.714Z,100571.66
2018-12-15T15:25:19.788Z,100561.45
2018-12-15T15:27:54.636Z,100562.03
2018-12-15T15:30:29.249Z,100549.13
2018-12-15T15:33:02.552Z,100556.10
2018-12-15T15:35:37.619Z,100562.73
2018-12-15T15:38:10.538Z,100562.09
2018-12-15T15:40:43.931Z,100556.78
2018-12-15T15:43:22.321Z,100555.66
2018-12-15T15:45:56.069Z,100563.11
2018-12-15T15:48:29.641Z,100557.67
2018-12-15T15:51:03.379Z,100552.67
2018-12-15T15:53:36.423Z,100549.94
2018-12-15T15:56:11.011Z,100540.03
2018-12-15T15:58:44.955Z,100535.37
2018-12-15T16:01:19.567Z,100524.98
2018-12-15T16:03:52.910Z,100521.11
2018-12-15T16:06:26.890Z,100518.03
2018-12-15T16:09:04.381Z,100510.70
2018-12-15T16:11:40.459Z,100510.82
2018-12-15T16:14:15.718Z,100502.30
2018-12-15T16:16:49.061Z,100503.39
2018-12-15T16:19:23.526Z,100502.09
2018-12-15T16:21:57.712Z,100512.29
2018-12-15T16:24:30.858Z,100506.16
2018-12-15T16:27:03.656Z,100497.77
2018-12-15T16:29:37.949Z,100502.03
2018-12-15T16:32:13.538Z,100495.48
2018-12-15T16:34:47.593Z,100491.72
2018-12-15T16:37:24.317Z,100491.27
2018-12-15T16:39:57.982Z,100480.94
2018-12-15T16:42:33.867Z,100490.64
2018-12-15T16:45:14.832Z,100481.40
2018-12-15T16:47:48.984Z,100487.44
2018-12-15T16:50:22.043Z,100489.34
2018-12-15T16:52:58.476Z,100475.73
2018-12-15T16:55:31.720Z,100470.78
2018-12-15T16:58:05.790Z,100475.48
2018-12-15T17:00:40.484Z,100472.01
2018-12-15T17:03:13.753Z,100467.43
2018-12-15T17:05:47.941Z,100471.33
2018-12-15T17:08:20.944Z,100455.69
2018-12-15T17:10:54.452Z,100443.67
2018-12-15T17:13:28.777Z,100449.55
2018-12-15T17:16:01.600Z,100450.12
2018-12-15T17:18:35.978Z,100437.95
2018-12-15T17:21:09.176Z,100450.14
2018-12-15T17:23:43.276Z,100425.15
2018-12-15T17:26:17.303Z,100444.56
2018-12-15T17:28:52.012Z,100423.50
2018-12-15T17:31:27.852Z,100441.34
2018-12-15T17:34:04.229Z,100422.40
2018-12-15T17:36:41.850Z,100426.40
2018-12-15T17:39:16.368Z,100403.79
2018-12-15T17:41:53.863Z,100398.16
2018-12-15T17:44:29.461Z,100391.34
2018-12-15T17:47:03.892Z,100396.09
2018-12-15T17:49:37.853Z,100388.48
2018-12-15T17:52:10.771Z,100379.50
2018-12-15T17:54:43.679Z,100372.42
2018-12-15T17:57:19.342Z,100377.89
2018-12-15T17:59:58.387Z,100372.14
2018-12-15T18:02:32.351Z,100366.07
2018-12-15T18:05:06.202Z,100359.56
2018-12-15T18:07:39.091Z,100354.16
2018-12-15T18:10:12.820Z,100341.87
2018-12-15T18:12:46.046Z,100335.87
2018-12-15T18:15:23.967Z,100327.21
2018-12-15T18:18:00.470Z,100328.23
2018-12-15T18:20:38.827Z,100311.05
2018-12-15T18:23:12.246Z,100294.70
2018-12-15T18:25:47.075Z,100271.41
2018-12-15T18:28:21.431Z,100288.94
2018-12-15T18:30:55.607Z,100285.70
2018-12-15T18:33:29.732Z,100272.67
2018-12-15T18:36:03.728Z,100252.38
2018-12-15T18:38:36.411Z,100243.45
2018-12-15T18:41:09.668Z,100233.41
2018-12-15T18:43:42.412Z,100233.84
2018-12-15T18:46:16.010Z,100240.13
2018-12-15T18:48:55.092Z,100228.97
2018-12-15T18:51:35.533Z,100235.73
2018-12-15T18:54:20.025Z,100222.88
2018-12-15T18:56:53.555Z,100223.33
2018-12-15T18:59:27.502Z,100221.84
2018-12-15T19:02:03.500Z,100225.27
2018-12-15T19:04:39.100Z,100238.30
2018-12-15T19:07:12.346Z,100229.89
2018-12-15T19:09:49.084Z,100231.84
2018-12-15T19:12:36.807Z,100231.47
2018-12-15T19:15:19.703Z,100223.97
2018-12-15T19:17:57.562Z,100219.84
2018-12-15T19:20:31.768Z,100219.28
2018-12-15T19:23:06.035Z,100216.70
2018-12-15T19:25:41.759Z,100210.64
2018-12-15T19:28:16.647Z,100206.17
2018-12-15T19:30:49.758Z,100200.59
2018-12-15T19:33:22.639Z,100202.34
2018-12-15T19:35:55.800Z,100193.58
2018-12-15T19:38:30.826Z,100207.02
2018-12-15T19:41:04.683Z,100196.66
2018-12-15T19:43:39.041Z,100181.78
2018-12-15T19:46:26.302Z,100160.48
2018-12-15T19:49:02.170Z,100168.98
2018-12-15T19:51:38.046Z,100164.59
2018-12-15T19:54:13.106Z,100157.59
2018-12-15T19:56:47.398Z,100167.17
2018-12-15T19:59:20.217Z,100158.42
2018-12-15T20:01:54.782Z,100152.58
2018-12-15T20:04:29.872Z,100147.92
2018-12-15T20:07:06.998Z,100141.06
2018-12-15T20:09:41.857Z,100132.03
2018-12-15T20:12:16.346Z,100129.30
2018-12-15T20:14:49.737Z,100125.02
2018-12-15T20:17:24.717Z,100124.20
2018-12-15T20:19:57.640Z,100119.25
2018-12-15T20:22:32.152Z,100118.37
2018-12-15T20:25:06.547Z,100114.09
2018-12-15T20:27:39.238Z,100106.20
2018-12-15T20:30:14.612Z,100110.63
2018-12-15T20:32:50.954Z,100104.41
2018-12-15T20:35:23.855Z,100100.37
2018-12-15T20:37:59.583Z,100100.44
2018-12-15T20:40:34.180Z,100090.36
2018-12-15T20:43:08.404Z,100083.86
2018-12-15T20:45:49.106Z,100083.66
2018-12-15T20:48:25.263Z,100078.69
2018-12-15T20:50:58.644Z,100079.80
2018-12-15T20:53:39.755Z,100070.98
2018-12-15T20:56:12.932Z,100058.84
2018-12-15T20:58:48.548Z,100043.78
2018-12-15T21:01:23.835Z,100055.66
2018-12-15T21:04:01.089Z,100055.53
2018-12-15T21:06:38.200Z,100052.27
2018-12-15T21:09:15.734Z,100042.60
2018-12-15T21:11:49.725Z,100047.43
2018-12-15T21:14:27.791Z,100029.48
2018-12-15T21:17:00.702Z,100033.37
2018-12-15T21:19:37.517Z,100027.94
2018-12-15T21:22:15.567Z,100024.20
2018-12-15T21:24:51.511Z,100007.16
2018-12-15T21:27:25.817Z,100011.80
2018-12-15T21:30:03.645Z,100001.77
2018-12-15T21:32:36.346Z,100002.88
2018-12-15T21:35:11.057Z,99998.56
2018-12-15T21:37:45.220Z,99985.47
2018-12-15T21:40:19.029Z,100003.95
2018-12-15T21:42:53.017Z,99988.33
2018-12-15T21:45:27.330Z,99979.23
2018-12-15T21:48:00.554Z,99975.66
2018-12-15T21:50:42.294Z,99970.16
2018-12-15T21:53:16.773Z,99968.03
2018-12-15T21:55:50.456Z,99964.39
2018-12-15T21:58:24.360Z,99935.16
2018-12-15T22:00:58.187Z,99945.49
2018-12-15T22:03:32.674Z,99937.39
2018-12-15T22:06:06.917Z,99928.75
2018-12-15T22:08:42.061Z,99905.38
2018-12-15T22:11:15.942Z,99889.66
2018-12-15T22:13:49.254Z,99903.14
2018-12-15T22:16:25.393Z,99906.91
2018-12-15T22:19:00.209Z,99882.11
2018-12-15T22:21:37.277Z,99879.70
2018-12-15T22:24:10.093Z,99891.96
2018-12-15T22:26:43.231Z,99875.88
2018-12-15T22:29:17.028Z,99869.43
2018-12-15T22:31:51.596Z,99864.03
2018-12-15T22:34:26.258Z,99844.33
2018-12-15T22:36:58.809Z,99834.78
2018-12-15T22:39:32.754Z,99825.37
2018-12-15T22:42:09.398Z,99826.97
2018-12-15T22:44:43.127Z,99824.05
2018-12-15T22:47:16.118Z,99815.63
2018-12-15T22:49:52.502Z,99814.56
2018-12-15T22:52:26.126Z,99821.05
2018-12-15T22:55:01.529Z,99807.39
2018-12-15T22:57:37.701Z,99810.81
2018-12-15T23:00:15.655Z,99793.55
2018-12-15T23:02:51.141Z,99795.08
2018-12-15T23:05:27.951Z,99793.90
2018-12-15T23:08:06.294Z,99792.93
2018-12-15T23:10:39.145Z,99785.98
2018-12-15T23:13:12.232Z,99778.70
2018-12-15T23:15:49.359Z,99785.55
2018-12-15T23:18:23.006Z,99764.56
2018-12-15T23:20:58.105Z,99774.45
2018-12-15T23:23:31.658Z,99780.50
2018-12-15T23:26:06.727Z,99779.17
2018-12-15T23:28:40.917Z,99766.98
2018-12-15T23:31:14.172Z,99779.27
2018-12-15T23:33:47.336Z,99782.27
2018-12-15T23:36:23.082Z,99791.92
2018-12-15T23:38:55.935Z,99789.05
2018-12-15T23:41:28.793Z,99800.89
2018-12-15T23:44:03.257Z,99804.05
2018-12-15T23:46:35.880Z,99799.42
2018-12-15T23:49:10.879Z,99795.50
2018-12-15T23:51:44.936Z,99806.11
2018-12-15T23:54:19.961Z,99825.50
2018-12-15T23:56:53.281Z,99828.88
2018-12-15T23:59:26.405Z,99827.88
